Jucas, Brazil
Current Conditions -  °F | °C
As of 5:00 PM on Tuesday 21 Oct 2014 (Local Time) from SBJU Reporting Station
Few Clouds Few Clouds  
Wind Chill: 97°   Ceiling: Unl
Heat Index: 97°   Visibility: 6mi
Dew Point: 61°   Wind: 3mph
Humidity: 30%   Direction: 330°NNW
Pressure: 29.88"   Gusts: NA
Location:  6.53°S, 39.53°W
Report Text: SBJU 212000Z 33003KT 9999 FEW024 36/16 Q1012
Loading
Personal Weather Stations






























Interactive Weather Map
Tropical Storm Tracking
New forecast layout! Learn more

10-Day Weather Forecast

Advertisements
Track Severe Weather on mobile